Time;durP1;ratioP1;P1;durP2;ratioP2;P2;SDS_P1;SDS_P2;PMS_P1;PMS_P2;Temp;Humidity;BMP_temperature;BMP_pressure;BME280_temperature;BME280_humidity;BME280_pressure;Samples;Min_cycle;Max_cycle;Signal;HPM_P1;HPM_P2
2022/04/16 00:01:09;;;;;;;18.65;12.68;;;10.50;68.70;;;;;;5034159;28;20021;-16
2022/04/16 00:03:35;;;;;;;17.48;11.98;;;10.50;68.60;;;;;;5033857;28;20025;-14
2022/04/16 00:06:02;;;;;;;19.25;14.43;;;10.40;68.40;;;;;;5033161;28;20053;-16
2022/04/16 00:08:29;;;;;;;18.42;13.25;;;10.40;69.60;;;;;;5033550;28;20083;-15
2022/04/16 00:10:56;;;;;;;21.90;14.07;;;10.40;69.00;;;;;;5033878;28;20057;-15
2022/04/16 00:13:23;;;;;;;19.00;13.52;;;10.40;68.90;;;;;;5033618;28;20026;-13
2022/04/16 00:15:50;;;;;;;21.65;13.70;;;10.40;69.20;;;;;;5033650;28;20366;-15
2022/04/16 00:18:17;;;;;;;21.33;14.02;;;10.40;68.90;;;;;;5033137;28;20018;-14
2022/04/16 00:20:44;;;;;;;26.35;15.93;;;10.40;68.90;;;;;;5033329;28;20501;-14
2022/04/16 00:23:10;;;;;;;22.40;14.75;;;10.40;69.30;;;;;;5033301;28;20048;-15
2022/04/16 00:25:36;;;;;;;25.02;18.13;;;10.40;70.20;;;;;;5033567;28;20025;-16
2022/04/16 00:28:04;;;;;;;22.42;15.30;;;10.30;69.40;;;;;;5033166;28;20528;-14
2022/04/16 00:30:37;;;;;;;20.67;14.73;;;10.30;69.50;;;;;;5033248;28;20104;-15
2022/04/16 00:33:05;;;;;;;21.15;15.18;;;10.30;69.30;;;;;;5033268;28;20184;-15
2022/04/16 00:35:32;;;;;;;28.10;20.95;;;10.20;69.60;;;;;;5033511;28;20029;-16
2022/04/16 00:37:58;;;;;;;27.48;19.77;;;10.20;70.00;;;;;;5033137;28;20029;-16
2022/04/16 00:40:24;;;;;;;34.85;21.52;;;10.20;70.60;;;;;;5033192;28;20072;-14
2022/04/16 00:42:51;;;;;;;24.40;15.98;;;10.20;70.80;;;;;;5033067;28;20505;-14
2022/04/16 00:45:17;;;;;;;34.63;21.42;;;10.20;70.10;;;;;;5031760;28;20100;-15
2022/04/16 00:47:45;;;;;;;21.13;14.48;;;10.30;70.50;;;;;;5033280;28;20512;-14
2022/04/16 00:50:12;;;;;;;23.52;14.98;;;10.30;70.30;;;;;;5033541;28;20492;-14
2022/04/16 00:52:39;;;;;;;22.77;16.67;;;10.30;69.90;;;;;;5033028;28;20098;-14
2022/04/16 00:55:08;;;;;;;27.27;18.92;;;10.30;70.10;;;;;;5033275;28;20024;-14
2022/04/16 00:57:37;;;;;;;28.10;18.42;;;10.30;70.30;;;;;;5032829;28;20068;-14
2022/04/16 01:00:06;;;;;;;21.77;14.90;;;10.40;70.60;;;;;;5032848;28;20371;-14
2022/04/16 01:02:35;;;;;;;26.38;16.60;;;10.40;70.30;;;;;;5032707;28;20029;-14
2022/04/16 01:05:02;;;;;;;29.02;18.13;;;10.40;70.10;;;;;;5032837;28;20099;-15
2022/04/16 01:07:27;;;;;;;21.80;15.55;;;10.40;70.00;;;;;;5033422;28;20531;-16
2022/04/16 01:09:53;;;;;;;24.65;15.80;;;10.50;70.00;;;;;;5032801;28;20029;-13
2022/04/16 01:12:19;;;;;;;25.83;15.98;;;10.50;69.90;;;;;;5032562;28;20076;-15
2022/04/16 01:14:46;;;;;;;24.55;17.40;;;10.50;69.90;;;;;;5033520;28;20026;-14
2022/04/16 01:17:16;;;;;;;24.52;16.63;;;10.50;69.90;;;;;;5034734;28;20053;-15
2022/04/16 01:19:42;;;;;;;25.13;17.15;;;10.50;69.90;;;;;;5037052;28;20022;-13
2022/04/16 01:22:11;;;;;;;25.35;18.92;;;10.60;69.90;;;;;;5036914;28;20033;-16
2022/04/16 01:24:47;;;;;;;22.90;17.42;;;10.60;70.10;;;;;;5036361;28;20028;-14
2022/04/16 01:27:13;;;;;;;26.17;17.38;;;10.60;69.90;;;;;;5036409;28;20061;-15
2022/04/16 01:29:40;;;;;;;20.13;15.48;;;10.60;69.90;;;;;;5036636;28;20060;-15
2022/04/16 01:32:07;;;;;;;21.65;15.05;;;10.60;69.90;;;;;;5036409;28;20049;-15
2022/04/16 01:34:33;;;;;;;24.50;16.17;;;10.60;70.20;;;;;;5036473;28;20060;-14
2022/04/16 01:40:21;;;;;;;21.38;13.57;;;10.40;70.20;;;;;;5036861;28;20033;-16
2022/04/16 01:42:46;;;;;;;19.50;13.27;;;10.40;69.90;;;;;;5036168;28;20032;-14
2022/04/16 01:45:18;;;;;;;19.50;13.45;;;10.40;70.00;;;;;;5035000;28;20038;-15
2022/04/16 01:47:44;;;;;;;19.88;14.15;;;10.30;70.30;;;;;;5036481;28;20037;-14
2022/04/16 01:50:11;;;;;;;20.55;13.65;;;10.30;70.50;;;;;;5036057;28;20030;-17
2022/04/16 01:52:39;;;;;;;23.48;15.48;;;10.30;70.20;;;;;;5036095;28;20048;-16
2022/04/16 01:55:06;;;;;;;22.30;15.70;;;10.20;70.70;;;;;;5035983;28;20500;-14
2022/04/16 01:57:32;;;;;;;20.42;14.65;;;10.10;70.90;;;;;;5036140;28;20025;-14
2022/04/16 01:59:58;;;;;;;21.95;14.63;;;10.10;70.70;;;;;;5035880;28;20021;-14
2022/04/16 02:02:24;;;;;;;23.27;15.15;;;10.00;70.70;;;;;;5034427;28;20032;-16
2022/04/16 02:04:51;;;;;;;20.25;15.68;;;9.90;70.80;;;;;;5034358;28;20056;-16
2022/04/16 02:07:17;;;;;;;21.23;15.40;;;9.90;71.30;;;;;;5035721;28;20425;-15
2022/04/16 02:09:43;;;;;;;23.13;16.02;;;9.80;71.20;;;;;;5036052;28;20029;-16
2022/04/16 02:12:09;;;;;;;22.17;15.50;;;9.70;71.20;;;;;;5035564;28;20393;-15
2022/04/16 02:14:36;;;;;;;23.63;16.17;;;9.70;71.70;;;;;;5035422;28;20061;-15
2022/04/16 02:17:02;;;;;;;21.30;14.57;;;9.60;71.90;;;;;;5035893;28;20079;-15
2022/04/16 02:19:29;;;;;;;22.27;15.52;;;9.60;71.60;;;;;;5034299;28;20171;-15
2022/04/16 02:25:18;;;;;;;25.35;17.67;;;9.60;72.00;;;;;;5035798;28;20025;-15
2022/04/16 02:27:44;;;;;;;25.60;15.65;;;9.60;72.40;;;;;;5035104;28;20417;-16
2022/04/16 02:30:13;;;;;;;22.27;14.70;;;9.60;72.20;;;;;;5035628;28;20049;-17
2022/04/16 02:32:41;;;;;;;20.67;13.02;;;9.60;72.40;;;;;;5035351;28;20469;-17
2022/04/16 02:35:08;;;;;;;22.85;14.43;;;9.60;72.10;;;;;;5035192;28;20037;-16
2022/04/16 02:37:35;;;;;;;24.67;15.38;;;9.60;72.40;;;;;;5035856;28;20034;-16
2022/04/16 02:40:02;;;;;;;23.88;16.70;;;9.60;72.40;;;;;;5035343;28;20032;-16
2022/04/16 02:42:28;;;;;;;24.10;15.30;;;9.60;72.50;;;;;;5034736;28;20037;-15
2022/04/16 02:47:40;;;;;;;19.48;14.38;;;9.50;72.40;;;;;;5035037;28;20052;-15
2022/04/16 02:50:06;;;;;;;21.83;15.70;;;9.40;72.90;;;;;;5035280;28;20032;-16
2022/04/16 02:52:36;;;;;;;24.83;16.40;;;9.40;72.90;;;;;;5034644;28;20389;-17
2022/04/16 02:55:04;;;;;;;21.58;14.98;;;9.40;73.20;;;;;;5035199;28;20083;-16
2022/04/16 02:57:33;;;;;;;20.85;14.50;;;9.30;73.00;;;;;;5034779;28;20481;-17
2022/04/16 03:00:00;;;;;;;20.38;14.77;;;9.30;72.70;;;;;;5034790;28;20040;-15
2022/04/16 03:02:26;;;;;;;20.95;14.43;;;9.20;72.70;;;;;;5034611;28;20025;-15
2022/04/16 03:04:54;;;;;;;22.23;15.60;;;9.30;72.80;;;;;;5034444;28;20036;-15
2022/04/16 03:07:20;;;;;;;21.88;15.88;;;9.30;72.80;;;;;;5033748;28;20029;-16
2022/04/16 03:09:46;;;;;;;22.35;15.60;;;9.30;73.40;;;;;;5034884;28;20033;-16
2022/04/16 03:12:12;;;;;;;27.10;16.75;;;9.30;73.20;;;;;;5034592;28;20416;-16
2022/04/16 03:17:31;;;;;;;25.95;15.82;;;9.20;74.10;;;;;;5034811;28;20401;-14
2022/04/16 03:19:58;;;;;;;24.45;15.70;;;9.20;73.90;;;;;;5034708;28;20017;-16
2022/04/16 03:22:24;;;;;;;19.45;13.77;;;9.20;73.30;;;;;;5034215;28;20427;-16
2022/04/16 03:24:51;;;;;;;20.77;15.73;;;9.30;73.50;;;;;;5034638;28;20104;-16
2022/04/16 03:27:17;;;;;;;22.42;14.57;;;9.30;73.70;;;;;;5032980;28;20040;-17
2022/04/16 03:29:43;;;;;;;22.20;15.02;;;9.30;73.60;;;;;;5034575;28;20069;-17
2022/04/16 03:32:09;;;;;;;25.88;16.75;;;9.30;73.20;;;;;;5034518;28;20057;-16
2022/04/16 03:34:37;;;;;;;23.13;17.58;;;9.40;73.30;;;;;;5033885;28;20441;-15
2022/04/16 03:37:04;;;;;;;24.90;16.42;;;9.40;73.40;;;;;;5034380;28;20481;-16
2022/04/16 03:39:30;;;;;;;22.70;16.25;;;9.40;73.20;;;;;;5033426;28;20033;-16
2022/04/16 03:41:56;;;;;;;21.48;15.88;;;9.40;73.30;;;;;;5034606;28;20022;-16
2022/04/16 03:44:22;;;;;;;20.88;15.02;;;9.40;73.30;;;;;;5033671;28;20516;-12
2022/04/16 03:46:48;;;;;;;23.25;15.82;;;9.40;73.40;;;;;;5033910;28;20025;-15
2022/04/16 03:49:14;;;;;;;22.85;15.88;;;9.50;73.50;;;;;;5033742;28;20128;-13
2022/04/16 03:51:40;;;;;;;25.35;16.20;;;9.40;73.80;;;;;;5033752;28;20063;-16
2022/04/16 04:02:21;;;;;;;;;;;9.40;74.70;;;;;;5034227;28;20125;-13
2022/04/16 04:04:47;;;;;;;25.95;17.30;;;9.30;76.10;;;;;;5032133;28;19996;-14
2022/04/16 04:07:13;;;;;;;27.90;18.88;;;9.20;74.10;;;;;;5033541;28;20096;-14
2022/04/16 04:09:39;;;;;;;23.58;16.67;;;9.20;73.90;;;;;;5033513;28;20029;-14
2022/04/16 04:12:15;;;;;;;23.08;16.42;;;9.20;74.10;;;;;;5033458;28;20033;-15
2022/04/16 04:14:43;;;;;;;26.10;17.58;;;9.10;74.40;;;;;;5033525;28;20440;-14
2022/04/16 04:17:09;;;;;;;21.10;16.10;;;9.10;74.90;;;;;;5034198;28;20029;-16
2022/04/16 04:19:41;;;;;;;20.30;14.00;;;9.10;75.10;;;;;;5033439;28;20462;-15
2022/04/16 04:22:10;;;;;;;19.40;14.55;;;9.00;74.40;;;;;;5033387;28;20052;-16
2022/04/16 04:24:38;;;;;;;19.15;13.07;;;9.10;74.60;;;;;;5033358;28;20056;-16
2022/04/16 04:27:05;;;;;;;21.55;14.45;;;9.10;74.30;;;;;;5033500;28;20030;-15
2022/04/16 04:29:31;;;;;;;20.05;15.00;;;9.10;74.70;;;;;;5033239;28;20481;-14
2022/04/16 04:31:57;;;;;;;24.17;16.70;;;9.10;75.00;;;;;;5033194;28;20381;-16
2022/04/16 04:34:24;;;;;;;29.67;20.90;;;9.00;75.20;;;;;;5031730;28;20029;-17
2022/04/16 04:36:49;;;;;;;22.67;15.50;;;9.00;75.20;;;;;;5033168;28;20029;-16
2022/04/16 04:39:16;;;;;;;23.40;15.48;;;9.10;75.30;;;;;;5033481;28;20029;-15
2022/04/16 04:41:43;;;;;;;20.63;14.38;;;9.00;75.60;;;;;;5033259;28;20108;-14
2022/04/16 04:44:12;;;;;;;19.30;13.68;;;9.00;75.00;;;;;;5033089;28;20025;-16
2022/04/16 04:46:40;;;;;;;23.33;13.02;;;9.10;74.80;;;;;;5033331;28;20033;-15
2022/04/16 04:49:09;;;;;;;20.58;15.25;;;9.10;74.70;;;;;;5033159;28;20036;-16
2022/04/16 04:51:39;;;;;;;21.50;15.43;;;9.20;74.50;;;;;;5034377;28;20029;-14
2022/04/16 04:54:06;;;;;;;20.27;13.80;;;9.30;74.70;;;;;;5037445;28;20029;-16
2022/04/16 04:56:35;;;;;;;20.48;14.38;;;9.40;74.60;;;;;;5036855;28;20030;-13
2022/04/16 04:59:02;;;;;;;21.10;13.65;;;9.60;74.60;;;;;;5036969;28;20017;-13
2022/04/16 05:01:28;;;;;;;22.88;15.30;;;9.70;74.80;;;;;;5037027;28;20184;-14
2022/04/16 05:03:54;;;;;;;26.45;17.15;;;9.80;75.00;;;;;;5036994;28;20112;-14
2022/04/16 05:06:20;;;;;;;19.33;13.15;;;10.00;74.70;;;;;;5036546;28;20042;-14
2022/04/16 05:08:46;;;;;;;21.95;14.80;;;10.20;74.10;;;;;;5036805;28;20075;-16
2022/04/16 05:11:12;;;;;;;20.33;13.73;;;10.30;74.10;;;;;;5037189;28;20017;-13
2022/04/16 05:13:38;;;;;;;19.02;12.90;;;10.40;74.10;;;;;;5036954;28;20032;-11
2022/04/16 05:16:05;;;;;;;18.13;12.50;;;10.40;73.50;;;;;;5036969;28;20034;-14
2022/04/16 05:18:31;;;;;;;17.98;11.23;;;10.50;73.30;;;;;;5035330;28;20029;-14
2022/04/16 05:20:57;;;;;;;18.92;12.60;;;10.50;73.30;;;;;;5036229;28;20022;-16
2022/04/16 05:23:24;;;;;;;16.40;10.68;;;10.60;73.20;;;;;;5036686;28;20021;-15
2022/04/16 05:25:51;;;;;;;16.67;11.48;;;10.70;72.90;;;;;;5036540;28;20036;-14
2022/04/16 05:28:17;;;;;;;16.13;10.65;;;10.70;72.60;;;;;;5036078;28;20029;-14
2022/04/16 05:30:48;;;;;;;14.23;10.05;;;10.80;72.50;;;;;;5036485;28;20164;-15
2022/04/16 05:36:03;;;;;;;14.00;9.88;;;10.90;72.00;;;;;;5036479;28;20125;-15
2022/04/16 05:38:30;;;;;;;15.80;11.13;;;11.10;71.90;;;;;;5036122;28;20057;-13
2022/04/16 05:40:55;;;;;;;16.83;11.32;;;11.20;71.60;;;;;;5036249;28;20469;-15
2022/04/16 05:43:21;;;;;;;19.35;13.55;;;11.40;71.30;;;;;;5036360;28;20063;-14
2022/04/16 05:45:47;;;;;;;17.42;12.38;;;11.60;72.40;;;;;;5036425;28;20030;-16
2022/04/16 05:48:13;;;;;;;17.25;11.98;;;11.70;71.30;;;;;;5034862;28;20048;-20
2022/04/16 05:50:39;;;;;;;20.58;14.32;;;11.90;71.10;;;;;;5036391;28;20026;-14
2022/04/16 05:53:08;;;;;;;14.75;9.90;;;11.90;70.60;;;;;;5036292;28;20083;-16
2022/04/16 05:55:35;;;;;;;13.57;9.65;;;12.00;70.40;;;;;;5036314;28;20128;-15
2022/04/16 05:58:01;;;;;;;15.98;11.68;;;12.20;70.10;;;;;;5035871;28;20029;-16
2022/04/16 06:00:28;;;;;;;13.60;10.70;;;12.30;70.40;;;;;;5035775;28;20057;-16
2022/04/16 06:02:56;;;;;;;14.93;11.10;;;12.40;70.00;;;;;;5035371;28;20048;-16
2022/04/16 06:05:22;;;;;;;21.73;14.77;;;12.60;70.20;;;;;;5034357;28;20056;-16
2022/04/16 06:07:49;;;;;;;20.02;15.70;;;12.80;69.60;;;;;;5035677;28;20025;-17
2022/04/16 06:10:15;;;;;;;21.08;14.73;;;13.10;69.50;;;;;;5035682;28;20033;-16
2022/04/16 06:12:41;;;;;;;21.52;15.15;;;13.40;69.30;;;;;;5036191;28;20477;-14
2022/04/16 06:15:08;;;;;;;15.20;11.77;;;13.80;69.00;;;;;;5035619;28;20022;-14
2022/04/16 06:17:34;;;;;;;20.88;12.60;;;14.20;69.00;;;;;;5035551;28;20067;-14
2022/04/16 06:20:01;;;;;;;18.88;12.02;;;14.80;68.90;;;;;;5035841;28;20049;-14
2022/04/16 06:22:26;;;;;;;17.08;12.43;;;15.30;67.80;;;;;;5035298;28;20032;-13
2022/04/16 06:24:52;;;;;;;22.80;15.07;;;15.90;66.30;;;;;;5035460;28;20030;-14
2022/04/16 06:27:18;;;;;;;21.13;14.18;;;16.30;64.30;;;;;;5034098;28;20025;-14
2022/04/16 06:29:44;;;;;;;17.15;12.98;;;16.70;63.90;;;;;;5035604;28;20041;-14
2022/04/16 06:32:10;;;;;;;18.80;13.98;;;17.10;63.00;;;;;;5035651;28;20025;-14
2022/04/16 06:34:36;;;;;;;20.02;15.05;;;17.50;61.20;;;;;;5035131;28;20140;-14
2022/04/16 06:37:02;;;;;;;18.73;13.63;;;17.90;62.10;;;;;;5035555;28;20029;-14
2022/04/16 06:39:28;;;;;;;22.25;17.08;;;18.40;61.60;;;;;;5035786;28;20458;-14
2022/04/16 06:41:54;;;;;;;21.25;15.48;;;18.80;60.00;;;;;;5035401;28;20025;-15
2022/04/16 06:44:20;;;;;;;20.83;14.27;;;19.10;59.50;;;;;;5035098;28;20029;-14
2022/04/16 06:46:46;;;;;;;17.85;13.73;;;19.40;59.20;;;;;;5034994;28;20037;-14
2022/04/16 06:49:12;;;;;;;15.88;12.25;;;19.70;57.80;;;;;;5034918;28;20116;-14
2022/04/16 06:51:38;;;;;;;16.83;12.23;;;19.80;56.10;;;;;;5035248;28;20116;-14
2022/04/16 06:54:04;;;;;;;17.88;12.90;;;19.80;56.30;;;;;;5034852;28;20045;-14
2022/04/16 06:56:30;;;;;;;19.48;13.23;;;19.80;54.40;;;;;;5034714;28;20017;-14
2022/04/16 06:58:55;;;;;;;18.75;13.80;;;19.70;54.80;;;;;;5034693;28;20025;-14
2022/04/16 07:01:21;;;;;;;17.80;13.05;;;19.80;55.20;;;;;;5035141;28;20076;-14
2022/04/16 07:03:47;;;;;;;16.35;12.38;;;20.00;54.30;;;;;;5035494;28;20021;-14
2022/04/16 07:06:13;;;;;;;16.88;11.10;;;20.30;54.30;;;;;;5034253;28;20054;-13
2022/04/16 07:08:38;;;;;;;14.40;11.15;;;20.40;54.30;;;;;;5034861;28;20073;-14
2022/04/16 07:11:04;;;;;;;15.68;11.30;;;20.30;53.10;;;;;;5034568;28;20439;-14
2022/04/16 07:13:30;;;;;;;14.18;10.23;;;20.20;53.60;;;;;;5034222;28;20033;-14
2022/04/16 07:15:56;;;;;;;14.85;10.35;;;20.30;54.20;;;;;;5033940;28;20029;-14
2022/04/16 07:18:23;;;;;;;14.20;10.48;;;20.40;53.40;;;;;;5034821;28;20104;-14
2022/04/16 07:20:49;;;;;;;15.85;10.68;;;20.70;53.30;;;;;;5034432;28;20072;-14
2022/04/16 07:23:15;;;;;;;15.70;10.90;;;20.80;51.80;;;;;;5034542;28;20030;-14
2022/04/16 07:25:41;;;;;;;15.13;11.15;;;20.80;51.80;;;;;;5034340;28;20112;-14
2022/04/16 07:28:07;;;;;;;19.40;11.52;;;20.90;51.80;;;;;;5034277;28;20531;-13
2022/04/16 07:30:32;;;;;;;16.05;10.57;;;21.00;53.00;;;;;;5034165;28;20026;-14
2022/04/16 07:32:58;;;;;;;14.43;9.90;;;21.10;52.40;;;;;;5034268;28;20033;-14
2022/04/16 07:35:26;;;;;;;16.15;10.63;;;21.40;52.40;;;;;;5034420;28;20071;-14
2022/04/16 07:37:57;;;;;;;16.05;10.13;;;21.60;51.50;;;;;;5034416;28;20056;-14
2022/04/16 07:40:26;;;;;;;14.45;9.73;;;21.80;52.00;;;;;;5034232;28;20063;-14
2022/04/16 07:42:52;;;;;;;12.98;9.15;;;21.90;50.20;;;;;;5034159;28;20026;-15
2022/04/16 07:45:18;;;;;;;13.20;9.45;;;22.00;51.50;;;;;;5033952;28;20021;-14
2022/04/16 07:47:44;;;;;;;11.88;9.02;;;22.00;50.40;;;;;;5033861;28;20029;-14
2022/04/16 07:50:11;;;;;;;12.23;8.43;;;21.80;50.20;;;;;;5032692;28;20034;-14
2022/04/16 07:52:36;;;;;;;12.27;8.50;;;21.70;49.90;;;;;;5033613;28;20040;-14
2022/04/16 07:55:02;;;;;;;15.90;8.02;;;21.60;49.70;;;;;;5033782;28;20025;-14
2022/04/16 07:57:28;;;;;;;11.65;8.43;;;21.70;50.50;;;;;;5033648;28;20063;-14
2022/04/16 07:59:54;;;;;;;11.38;8.30;;;21.80;51.00;;;;;;5033588;28;20025;-13
2022/04/16 08:02:20;;;;;;;12.00;8.38;;;22.00;50.30;;;;;;5033624;28;20119;-15
2022/04/16 08:04:46;;;;;;;11.02;7.90;;;22.20;49.30;;;;;;5033657;28;20032;-15
2022/04/16 08:07:12;;;;;;;13.98;8.55;;;22.40;48.40;;;;;;5033867;28;20026;-14
2022/04/16 08:09:38;;;;;;;12.80;8.60;;;22.30;48.90;;;;;;5033717;28;20089;-14
2022/04/16 08:12:05;;;;;;;12.15;9.15;;;22.20;48.80;;;;;;5033473;28;20112;-14
2022/04/16 08:14:30;;;;;;;12.48;8.45;;;22.10;50.50;;;;;;5033237;28;20029;-14
2022/04/16 08:16:56;;;;;;;14.27;9.40;;;21.80;50.70;;;;;;5033429;28;20576;-14
2022/04/16 08:19:23;;;;;;;13.88;8.68;;;21.50;50.80;;;;;;5033668;28;20037;-14
2022/04/16 08:21:50;;;;;;;11.15;8.63;;;21.20;50.30;;;;;;5033671;28;20033;-14
2022/04/16 08:24:39;;;;;;;14.10;9.05;;;20.90;51.00;;;;;;5033231;28;20079;-15
2022/04/16 08:27:07;;;;;;;11.05;7.82;;;20.90;51.00;;;;;;5033114;28;20456;-15
2022/04/16 08:29:33;;;;;;;14.02;8.85;;;20.80;51.80;;;;;;5033090;28;20037;-14
2022/04/16 08:31:59;;;;;;;13.20;8.40;;;20.90;52.20;;;;;;5033348;28;20473;-13
2022/04/16 08:34:25;;;;;;;12.18;8.50;;;20.90;52.40;;;;;;5033179;28;20033;-14
2022/04/16 08:36:51;;;;;;;12.50;9.10;;;21.10;52.40;;;;;;5033258;28;20075;-14
2022/04/16 08:39:17;;;;;;;13.13;9.38;;;21.10;51.90;;;;;;5033111;28;20393;-14
2022/04/16 08:41:42;;;;;;;13.75;9.70;;;21.20;52.00;;;;;;5033032;28;20033;-15
2022/04/16 08:44:10;;;;;;;12.07;8.90;;;21.20;52.30;;;;;;5033116;28;20040;-14
2022/04/16 08:46:36;;;;;;;13.48;9.02;;;21.20;52.20;;;;;;5033586;28;20499;-13
2022/04/16 08:49:02;;;;;;;13.85;8.80;;;21.30;52.10;;;;;;5033242;28;20040;-14
2022/04/16 08:51:29;;;;;;;11.63;8.00;;;21.40;51.90;;;;;;5033442;28;20028;-14
2022/04/16 08:53:55;;;;;;;12.65;9.80;;;21.50;51.50;;;;;;5033169;28;20025;-14
2022/04/16 08:56:21;;;;;;;12.60;8.40;;;21.60;52.00;;;;;;5032961;28;20025;-14
2022/04/16 08:58:46;;;;;;;11.48;8.30;;;21.60;52.00;;;;;;5031694;28;20402;-14
2022/04/16 09:01:12;;;;;;;12.57;8.63;;;21.60;50.30;;;;;;5031809;28;20069;-13
2022/04/16 09:03:40;;;;;;;12.40;7.88;;;21.40;50.40;;;;;;5033424;28;20389;-14
2022/04/16 09:06:08;;;;;;;10.27;7.70;;;21.40;50.90;;;;;;5032797;28;20054;-15
2022/04/16 09:08:35;;;;;;;10.35;7.85;;;21.40;50.30;;;;;;5032689;28;20600;-14
2022/04/16 09:11:10;;;;;;;12.80;7.82;;;21.60;51.20;;;;;;5033310;28;20021;-14
2022/04/16 09:13:41;;;;;;;11.68;7.38;;;22.00;49.20;;;;;;5032764;28;20542;-14
2022/04/16 09:16:07;;;;;;;8.95;5.97;;;22.60;48.20;;;;;;5033040;28;20496;-14
2022/04/16 09:18:47;;;;;;;6.93;5.28;;;22.90;44.50;;;;;;5032879;28;20083;-13
2022/04/16 09:21:13;;;;;;;8.68;5.30;;;22.90;44.00;;;;;;5032766;28;20080;-14
2022/04/16 09:23:47;;;;;;;8.70;5.57;;;23.00;43.70;;;;;;5032744;28;20493;-14
2022/04/16 09:26:25;;;;;;;9.05;6.07;;;22.70;44.10;;;;;;5032784;28;20075;-14
2022/04/16 09:28:52;;;;;;;9.38;5.47;;;22.60;45.40;;;;;;5032851;28;20029;-14
2022/04/16 09:31:18;;;;;;;8.98;6.60;;;22.70;45.80;;;;;;5031427;28;20057;-14
2022/04/16 09:33:45;;;;;;;12.00;5.70;;;22.90;44.50;;;;;;5032671;28;20030;-14
2022/04/16 09:36:11;;;;;;;9.40;5.90;;;23.20;45.60;;;;;;5032598;28;20071;-15
2022/04/16 09:38:37;;;;;;;8.77;5.47;;;23.50;44.00;;;;;;5033980;28;20096;-14
2022/04/16 09:41:08;;;;;;;7.70;4.68;;;23.50;44.60;;;;;;5036304;28;20057;-15
2022/04/16 09:43:38;;;;;;;9.82;5.03;;;23.60;42.60;;;;;;5036201;28;20480;-15
2022/04/16 09:46:11;;;;;;;8.48;4.60;;;23.70;43.10;;;;;;5036553;28;20022;-15
2022/04/16 09:48:39;;;;;;;7.57;4.53;;;23.90;42.20;;;;;;5035881;28;20029;-14
2022/04/16 09:51:05;;;;;;;6.53;4.70;;;24.10;41.50;;;;;;5036660;28;20030;-14
2022/04/16 09:53:31;;;;;;;6.30;4.05;;;23.80;41.20;;;;;;5036275;28;20105;-14
2022/04/16 09:56:01;;;;;;;7.47;4.15;;;23.70;41.60;;;;;;5035968;28;20473;-15
2022/04/16 09:58:37;;;;;;;4.65;3.60;;;23.90;41.40;;;;;;5035675;28;20022;-14
2022/04/16 10:01:04;;;;;;;4.82;3.47;;;24.20;39.60;;;;;;5035990;28;20030;-14
2022/04/16 10:03:32;;;;;;;5.40;3.50;;;24.50;39.30;;;;;;5035894;28;20026;-14
2022/04/16 10:06:00;;;;;;;8.40;3.58;;;24.80;37.80;;;;;;5035615;28;20103;-14
2022/04/16 10:08:27;;;;;;;7.22;3.92;;;24.90;38.10;;;;;;5035493;28;20072;-14
2022/04/16 10:10:57;;;;;;;4.55;3.60;;;24.80;37.60;;;;;;5035709;28;20026;-14
2022/04/16 10:13:24;;;;;;;5.55;3.63;;;24.90;38.50;;;;;;5036010;28;20091;-14
2022/04/16 10:16:39;;;;;;;5.30;3.80;;;25.10;39.10;;;;;;5035960;28;20036;-15
2022/04/16 10:19:15;;;;;;;7.55;4.22;;;25.30;37.30;;;;;;4994248;28;20105;-14
2022/04/16 10:21:42;;;;;;;7.43;3.97;;;25.40;38.10;;;;;;5033944;28;20060;-14
2022/04/16 10:24:08;;;;;;;5.10;4.00;;;25.40;39.20;;;;;;5035493;28;20405;-14
2022/04/16 10:26:39;;;;;;;9.30;4.32;;;25.70;38.40;;;;;;5035258;28;20021;-14
2022/04/16 10:29:05;;;;;;;7.82;3.85;;;25.40;37.50;;;;;;5035569;28;20428;-13
2022/04/16 10:31:33;;;;;;;4.93;3.40;;;25.50;37.10;;;;;;5035329;28;20022;-13
2022/04/16 10:34:08;;;;;;;4.15;3.40;;;25.20;36.10;;;;;;5035507;28;20022;-13
2022/04/16 10:36:39;;;;;;;6.03;3.90;;;25.10;35.50;;;;;;5035137;28;20112;-13
2022/04/16 10:39:19;;;;;;;4.75;3.40;;;25.30;37.90;;;;;;5034075;28;20120;-13
2022/04/16 10:41:55;;;;;;;3.85;3.20;;;25.40;37.20;;;;;;5035201;28;20427;-13
2022/04/16 10:44:23;;;;;;;6.47;3.15;;;25.90;36.00;;;;;;5033721;28;20052;-14
2022/04/16 10:46:50;;;;;;;5.00;3.00;;;26.00;33.60;;;;;;5035387;28;20029;-13
2022/04/16 10:49:22;;;;;;;4.68;3.42;;;25.80;33.90;;;;;;5034976;28;20500;-14
2022/04/16 10:51:50;;;;;;;4.57;3.20;;;25.40;35.40;;;;;;5035419;28;20053;-14
2022/04/16 10:54:34;;;;;;;3.97;3.03;;;25.80;33.80;;;;;;5035051;28;20087;-14
2022/04/16 10:57:02;;;;;;;4.25;3.30;;;26.00;34.60;;;;;;5035701;28;20021;-14
2022/04/16 10:59:45;;;;;;;3.75;2.97;;;26.30;34.70;;;;;;5035059;28;20067;-13
2022/04/16 11:02:19;;;;;;;4.18;3.20;;;26.50;33.70;;;;;;5035106;28;20523;-14
2022/04/16 11:04:59;;;;;;;4.68;2.65;;;26.60;32.60;;;;;;5034548;28;20660;-14
2022/04/16 11:07:27;;;;;;;4.70;3.25;;;26.40;33.10;;;;;;5034750;28;20039;-15
2022/04/16 11:09:54;;;;;;;4.22;3.40;;;26.00;33.30;;;;;;5034760;28;20036;-14
2022/04/16 11:12:22;;;;;;;6.95;3.63;;;25.60;34.40;;;;;;5034403;28;20038;-13
2022/04/16 11:14:51;;;;;;;3.75;3.33;;;25.60;36.00;;;;;;5034617;28;20509;-14
2022/04/16 11:17:21;;;;;;;6.13;3.28;;;25.60;35.90;;;;;;5035377;28;20103;-14
2022/04/16 11:20:07;;;;;;;5.78;3.55;;;25.60;33.60;;;;;;5034642;28;20017;-13
2022/04/16 11:22:34;;;;;;;4.55;3.20;;;25.40;34.90;;;;;;5034226;28;20121;-13
2022/04/16 11:25:05;;;;;;;6.13;3.58;;;25.40;34.90;;;;;;5034590;28;20481;-13
2022/04/16 11:35:57;;;;;;;5.60;2.83;;;26.10;34.20;;;;;;5034510;28;20397;-13
2022/04/16 11:38:31;;;;;;;3.33;2.63;;;26.50;33.00;;;;;;5034281;28;20037;-14
2022/04/16 11:41:04;;;;;;;2.50;2.20;;;26.90;31.50;;;;;;5034511;28;20021;-14
2022/04/16 11:43:31;;;;;;;4.18;2.70;;;26.70;31.50;;;;;;5033997;28;20041;-13
2022/04/16 11:46:02;;;;;;;4.18;2.80;;;26.60;31.50;;;;;;5034152;28;20482;-13
2022/04/16 11:48:31;;;;;;;5.65;2.78;;;26.60;31.90;;;;;;5033636;28;20025;-13
2022/04/16 11:50:57;;;;;;;3.67;2.70;;;26.00;32.10;;;;;;5033846;28;20567;-14
2022/04/16 11:53:23;;;;;;;3.38;2.50;;;25.90;32.20;;;;;;5034158;28;20026;-14
2022/04/16 11:55:52;;;;;;;3.20;2.53;;;25.60;33.60;;;;;;5034046;28;20117;-14
2022/04/16 11:58:27;;;;;;;3.10;2.40;;;25.70;34.60;;;;;;5033438;28;20024;-15
2022/04/16 12:00:57;;;;;;;3.83;2.40;;;26.20;32.60;;;;;;5033314;28;20474;-15
2022/04/16 12:03:44;;;;;;;8.15;2.70;;;26.60;32.40;;;;;;5033686;28;20117;-14
2022/04/16 12:06:11;;;;;;;3.10;2.80;;;26.80;32.80;;;;;;5033489;28;20108;-14
2022/04/16 12:08:39;;;;;;;2.63;2.30;;;26.60;32.20;;;;;;5033540;28;20036;-14
2022/04/16 12:11:06;;;;;;;2.63;2.30;;;26.40;31.80;;;;;;5034425;28;20369;-14
2022/04/16 12:13:40;;;;;;;3.05;2.55;;;26.40;32.20;;;;;;5033392;28;20034;-15
2022/04/16 12:16:12;;;;;;;2.35;2.13;;;26.30;33.40;;;;;;5033776;28;20092;-14
2022/04/16 12:18:43;;;;;;;2.70;2.30;;;26.10;32.30;;;;;;5033497;28;20031;-14
2022/04/16 12:21:17;;;;;;;4.60;2.55;;;26.10;32.20;;;;;;5033724;28;20025;-14
2022/04/16 12:23:44;;;;;;;4.88;2.53;;;25.80;31.20;;;;;;5033365;28;20382;-14
2022/04/16 12:26:13;;;;;;;4.80;2.78;;;25.50;32.50;;;;;;5033306;28;20036;-14
2022/04/16 12:28:51;;;;;;;4.03;2.60;;;24.80;33.20;;;;;;5033128;28;20034;-14
2022/04/16 12:31:30;;;;;;;2.72;2.45;;;24.00;32.60;;;;;;5033623;28;20017;-14
2022/04/16 12:33:57;;;;;;;6.90;3.25;;;23.40;34.40;;;;;;5033540;28;20037;-15
2022/04/16 12:36:23;;;;;;;3.38;2.50;;;23.30;34.30;;;;;;5033325;28;20026;-14
2022/04/16 12:38:49;;;;;;;3.40;2.15;;;22.90;34.60;;;;;;5033731;28;20412;-13
2022/04/16 12:41:15;;;;;;;4.30;2.65;;;22.40;35.80;;;;;;5033097;28;20140;-14
2022/04/16 12:43:42;;;;;;;4.53;2.80;;;22.00;36.40;;;;;;5033057;28;20477;-14
2022/04/16 12:46:08;;;;;;;3.97;2.47;;;21.90;37.00;;;;;;5033432;28;20025;-14
2022/04/16 12:48:34;;;;;;;12.85;3.70;;;21.60;37.50;;;;;;5032722;28;20025;-14
2022/04/16 12:51:01;;;;;;;20.20;4.70;;;21.50;40.70;;;;;;5033021;28;20033;-16
2022/04/16 12:53:26;;;;;;;14.75;4.85;;;21.10;49.00;;;;;;5032981;28;20060;-13
2022/04/16 12:55:52;;;;;;;12.60;4.80;;;19.90;53.40;;;;;;5032976;28;20029;-15
2022/04/16 12:58:18;;;;;;;11.05;3.97;;;18.20;61.40;;;;;;5032764;28;20025;-16
2022/04/16 13:00:48;;;;;;;9.77;3.80;;;17.00;65.00;;;;;;5031768;28;20025;-15
2022/04/16 13:03:14;;;;;;;6.97;3.65;;;16.20;67.70;;;;;;5033121;28;20044;-19
2022/04/16 13:05:40;;;;;;;7.38;3.13;;;15.90;68.40;;;;;;5032754;28;20045;-16
2022/04/16 13:08:08;;;;;;;6.38;3.40;;;15.70;69.20;;;;;;5032854;28;20481;-14
2022/04/16 13:10:35;;;;;;;5.32;3.38;;;15.40;70.20;;;;;;5032696;28;20028;-13